| time (UTC) | temp F | wind direction | speed MPH | gust MPH | rain 1hr in | rain 24hr in | rain mn in | humidity % | barometer mb |
| 20260506032203 | 71 | 226 | 0.0 | 3.0 | 0.00 | 0.00 | 0.00 | 28 | 1009.7 |
| 20260506031704 | 71 | 215 | 0.0 | 3.0 | 0.00 | 0.00 | 0.00 | 28 | 1009.6 |
| 20260506031205 | 71 | 220 | 0.0 | 0.0 | 0.00 | 0.00 | 0.00 | 28 | 1009.5 |
| 20260506030704 | 71 | 221 | 0.0 | 3.0 | 0.00 | 0.00 | 0.00 | 28 | 1009.4 |
| 20260506030204 | 71 | 232 | 1.0 | 9.0 | 0.00 | 0.00 | 0.00 | 27 | 1009.4 |
| 20260506025705 | 71 | 213 | 1.0 | 9.0 | 0.00 | 0.00 | 0.00 | 27 | 1009.4 |
| 20260506025205 | 72 | 207 | 2.0 | 12.0 | 0.00 | 0.00 | 0.00 | 27 | 1009.3 |
| 20260506024705 | 72 | 232 | 2.0 | 12.0 | 0.00 | 0.00 | 0.00 | 27 | 1009.2 |
| 20260506024422 | 72 | 205 | 0.0 | 7.0 | 0.00 | 0.00 | 0.00 | 27 | 1009.1 |
| 20260506023703 | 72 | 223 | 1.0 | 11.0 | 0.00 | 0.00 | 0.00 | 26 | 1009.1 |
| 20260506023204 | 72 | 221 | 1.0 | 11.0 | 0.00 | 0.00 | 0.00 | 26 | 1009.1 |
| 20260506022703 | 72 | 205 | 1.0 | 7.0 | 0.00 | 0.00 | 0.00 | 26 | 1009.0 |
| 20260506022204 | 72 | 208 | 1.0 | 9.0 | 0.00 | 0.00 | 0.00 | 26 | 1008.9 |
| 20260506021701 | 73 | 204 | 1.0 | 9.0 | 0.00 | 0.00 | 0.00 | 26 | 1008.8 |
| 20260506021428 | 73 | 182 | 0.0 | 9.0 | 0.00 | 0.00 | 0.00 | 26 | 1008.7 |
| 20260506021155 | 73 | 223 | 1.0 | 10.0 | 0.00 | 0.00 | 0.00 | 26 | 1008.7 |
| 20260506020202 | 73 | 190 | 1.0 | 10.0 | 0.00 | 0.00 | 0.00 | 26 | 1008.6 |
| 20260506015701 | 73 | 213 | 1.0 | 11.0 | 0.00 | 0.00 | 0.00 | 25 | 1008.5 |
| 20260506015201 | 74 | 207 | 2.0 | 17.0 | 0.00 | 0.00 | 0.00 | 25 | 1008.5 |
| 20260506014701 | 74 | 206 | 2.0 | 17.0 | 0.00 | 0.00 | 0.00 | 25 | 1008.4 |
| 20260506014201 | 74 | 204 | 1.0 | 10.0 | 0.00 | 0.00 | 0.00 | 25 | 1008.4 |
| 20260506013701 | 74 | 165 | 2.0 | 10.0 | 0.00 | 0.00 | 0.00 | 25 | 1008.3 |
| 20260506013202 | 74 | 243 | 4.0 | 12.0 | 0.00 | 0.00 | 0.00 | 25 | 1008.3 |
| 20260506012700 | 74 | 229 | 3.0 | 13.0 | 0.00 | 0.00 | 0.00 | 25 | 1008.3 |
| 20260506012201 | 75 | 232 | 2.0 | 16.0 | 0.00 | 0.00 | 0.00 | 26 | 1008.2 |
| 20260506011700 | 75 | 225 | 2.0 | 16.0 | 0.00 | 0.00 | 0.00 | 26 | 1008.2 |
| 20260506011201 | 75 | 223 | 2.0 | 8.0 | 0.00 | 0.00 | 0.00 | 26 | 1008.1 |
| 20260506010701 | 75 | 213 | 2.0 | 9.0 | 0.00 | 0.00 | 0.00 | 26 | 1008.0 |
| 20260506010201 | 75 | 204 | 3.0 | 12.0 | 0.00 | 0.00 | 0.00 | 25 | 1008.1 |
| 20260506005926 | 76 | 258 | 2.0 | 12.0 | 0.00 | 0.00 | 0.00 | 24 | 1008.0 |
| 20260506005203 | 76 | 221 | 1.0 | 16.0 | 0.00 | 0.00 | 0.00 | 24 | 1008.0 |
| 20260506004702 | 76 | 213 | 2.0 | 16.0 | 0.00 | 0.00 | 0.00 | 25 | 1008.0 |
| 20260506004201 | 76 | 175 | 2.0 | 14.0 | 0.00 | 0.00 | 0.00 | 25 | 1007.7 |
| 20260506003701 | 76 | 238 | 2.0 | 11.0 | 0.00 | 0.00 | 0.00 | 24 | 1007.7 |
| 20260506003423 | 76 | 248 | 3.0 | 11.0 | 0.00 | 0.00 | 0.00 | 24 | 1007.7 |
| 20260506002927 | 76 | 205 | 2.0 | 11.0 | 0.00 | 0.00 | 0.00 | 25 | 1007.7 |
| 20260506002201 | 75 | 182 | 1.0 | 11.0 | 0.00 | 0.00 | 0.00 | 25 | 1007.6 |
| 20260506001703 | 75 | 196 | 2.0 | 11.0 | 0.00 | 0.00 | 0.00 | 25 | 1007.6 |
| 20260506001202 | 75 | 207 | 2.0 | 11.0 | 0.00 | 0.00 | 0.00 | 26 | 1007.7 |
| 20260506000701 | 76 | 190 | 2.0 | 11.0 | 0.00 | 0.00 | 0.00 | 25 | 1007.6 |
| 20260506000201 | 76 | 159 | 3.0 | 15.0 | 0.00 | 0.00 | 0.00 | 24 | 1007.5 |
| 20260505235702 | 76 | 196 | 4.0 | 15.0 | 0.00 | 0.00 | 0.00 | 25 | 1007.6 |
| 20260505235201 | 76 | 200 | 3.0 | 15.0 | 0.00 | 0.00 | 0.00 | 25 | 1007.6 |
| 20260505234701 | 76 | 214 | 4.0 | 20.0 | 0.00 | 0.00 | 0.00 | 24 | 1007.6 |
| 20260505234201 | 76 | 197 | 5.0 | 20.0 | 0.00 | 0.00 | 0.00 | 24 | 1007.5 |
| 20260505233701 | 76 | 232 | 4.0 | 18.0 | 0.00 | 0.00 | 0.00 | 24 | 1007.5 |
| 20260505233201 | 76 | 164 | 3.0 | 15.0 | 0.00 | 0.00 | 0.00 | 25 | 1007.5 |
| 20260505232701 | 77 | 208 | 2.0 | 15.0 | 0.00 | 0.00 | 0.00 | 25 | 1007.6 |
| 20260505232201 | 77 | 154 | 1.0 | 9.0 | 0.00 | 0.00 | 0.00 | 25 | 1007.5 |
| 20260505231922 | 77 | 247 | 1.0 | 9.0 | 0.00 | 0.00 | 0.00 | 24 | 1007.6 |
| 20260505231201 | 77 | 197 | 2.0 | 11.0 | 0.00 | 0.00 | 0.00 | 24 | 1007.6 |
| 20260505230701 | 77 | 202 | 4.0 | 17.0 | 0.00 | 0.00 | 0.00 | 24 | 1007.6 |
| 20260505230201 | 76 | 211 | 3.0 | 17.0 | 0.00 | 0.00 | 0.00 | 25 | 1007.7 |
| 20260505225700 | 76 | 283 | 1.0 | 11.0 | 0.00 | 0.00 | 0.00 | 26 | 1007.6 |
| 20260505225202 | 76 | 226 | 2.0 | 11.0 | 0.00 | 0.00 | 0.00 | 26 | 1007.7 |
| 20260505224702 | 77 | 214 | 1.0 | 10.0 | 0.00 | 0.00 | 0.00 | 27 | 1007.8 |
| 20260505224202 | 76 | 191 | 1.0 | 10.0 | 0.00 | 0.00 | 0.00 | 27 | 1007.8 |
| 20260505223702 | 76 | 211 | 2.0 | 12.0 | 0.00 | 0.00 | 0.00 | 27 | 1008.0 |
| 20260505223201 | 76 | 172 | 2.0 | 12.0 | 0.00 | 0.00 | 0.00 | 27 | 1008.1 |
| 20260505222923 | 76 | 221 | 2.0 | 15.0 | 0.00 | 0.00 | 0.00 | 27 | 1008.1 |
| 20260505222201 | 76 | 194 | 3.0 | 15.0 | 0.00 | 0.00 | 0.00 | 26 | 1008.3 |
| 20260505221701 | 76 | 227 | 5.0 | 15.0 | 0.00 | 0.00 | 0.00 | 26 | 1008.3 |
| 20260505221425 | 76 | 213 | 3.0 | 15.0 | 0.00 | 0.00 | 0.00 | 26 | 1008.3 |
| 20260505220702 | 76 | 215 | 3.0 | 14.0 | 0.00 | 0.00 | 0.00 | 27 | 1008.3 |
| 20260505220423 | 76 | 226 | 4.0 | 14.0 | 0.00 | 0.00 | 0.00 | 27 | 1008.4 |
| 20260505215701 | 77 | 238 | 6.0 | 16.0 | 0.00 | 0.00 | 0.00 | 26 | 1008.4 |
| 20260505215201 | 77 | 188 | 5.0 | 16.0 | 0.00 | 0.00 | 0.00 | 26 | 1008.4 |
| 20260505214701 | 76 | 214 | 2.0 | 15.0 | 0.00 | 0.00 | 0.00 | 27 | 1008.4 |
| 20260505214202 | 76 | 188 | 2.0 | 13.0 | 0.00 | 0.00 | 0.00 | 26 | 1008.4 |
| 20260505213702 | 77 | 175 | 4.0 | 19.0 | 0.00 | 0.00 | 0.00 | 26 | 1008.5 |
| 20260505213202 | 77 | 222 | 3.0 | 19.0 | 0.00 | 0.00 | 0.00 | 26 | 1008.6 |
| 20260505212702 | 77 | 210 | 1.0 | 10.0 | 0.00 | 0.00 | 0.00 | 26 | 1008.5 |
| 20260505212201 | 77 | 227 | 2.0 | 12.0 | 0.00 | 0.00 | 0.00 | 27 | 1008.6 |
| 20260505211700 | 77 | 206 | 2.0 | 15.0 | 0.00 | 0.00 | 0.00 | 27 | 1008.6 |
| 20260505211430 | 77 | 209 | 1.0 | 15.0 | 0.00 | 0.00 | 0.00 | 25 | 1008.7 |
| 20260505210701 | 77 | 219 | 2.0 | 15.0 | 0.00 | 0.00 | 0.00 | 25 | 1008.8 |
| 20260505210201 | 77 | 180 | 3.0 | 15.0 | 0.00 | 0.00 | 0.00 | 26 | 1008.9 |
| 20260505205920 | 77 | 210 | 2.0 | 14.0 | 0.00 | 0.00 | 0.00 | 26 | 1009.0 |
| 20260505205201 | 76 | 192 | 1.0 | 10.0 | 0.00 | 0.00 | 0.00 | 27 | 1008.9 |
| 20260505204701 | 77 | 216 | 2.0 | 10.0 | 0.00 | 0.00 | 0.00 | 26 | 1008.9 |
| 20260505204200 | 77 | 243 | 2.0 | 17.0 | 0.00 | 0.00 | 0.00 | 27 | 1009.0 |
| 20260505203701 | 76 | 248 | 2.0 | 17.0 | 0.00 | 0.00 | 0.00 | 28 | 1009.0 |
| 20260505203202 | 76 | 248 | 1.0 | 9.0 | 0.00 | 0.00 | 0.00 | 28 | 1009.0 |
| 20260505202701 | 76 | 202 | 3.0 | 12.0 | 0.00 | 0.00 | 0.00 | 28 | 1009.1 |
| 20260505202201 | 76 | 230 | 5.0 | 17.0 | 0.00 | 0.00 | 0.00 | 29 | 1009.1 |
| 20260505201702 | 76 | 242 | 2.0 | 17.0 | 0.00 | 0.00 | 0.00 | 29 | 1009.1 |
| 20260505201200 | 76 | 225 | 2.0 | 17.0 | 0.00 | 0.00 | 0.00 | 30 | 1009.1 |
| 20260505200702 | 76 | 174 | 3.0 | 17.0 | 0.00 | 0.00 | 0.00 | 30 | 1009.3 |
| 20260505200422 | 76 | 219 | 2.0 | 15.0 | 0.00 | 0.00 | 0.00 | 30 | 1009.3 |
| 20260505195921 | 76 | 207 | 4.0 | 17.0 | 0.00 | 0.00 | 0.00 | 30 | 1009.2 |
| 20260505195201 | 76 | 229 | 5.0 | 17.0 | 0.00 | 0.00 | 0.00 | 30 | 1009.3 |
| 20260505194700 | 76 | 236 | 2.0 | 14.0 | 0.00 | 0.00 | 0.00 | 32 | 1009.3 |
| 20260505194201 | 75 | 241 | 1.0 | 10.0 | 0.00 | 0.00 | 0.00 | 32 | 1009.3 |
| 20260505193701 | 75 | 208 | 3.0 | 19.0 | 0.00 | 0.00 | 0.00 | 32 | 1009.4 |
| 20260505193201 | 75 | 229 | 4.0 | 19.0 | 0.00 | 0.00 | 0.00 | 32 | 1009.4 |
| 20260505192702 | 76 | 242 | 3.0 | 16.0 | 0.00 | 0.00 | 0.00 | 32 | 1009.5 |
| 20260505192202 | 75 | 179 | 2.0 | 14.0 | 0.00 | 0.00 | 0.00 | 33 | 1009.4 |
| 20260505191701 | 74 | 250 | 4.0 | 14.0 | 0.00 | 0.00 | 0.00 | 33 | 1009.5 |
| 20260505191201 | 75 | 217 | 4.0 | 14.0 | 0.00 | 0.00 | 0.00 | 34 | 1009.6 |
| 20260505190702 | 74 | 242 | 1.0 | 10.0 | 0.00 | 0.00 | 0.00 | 36 | 1009.6 |
| 20260505190202 | 74 | 235 | 0.0 | 7.0 | 0.00 | 0.00 | 0.00 | 37 | 1009.6 |
| 20260505185701 | 74 | 232 | 0.0 | 13.0 | 0.00 | 0.00 | 0.00 | 38 | 1009.7 |
| 20260505185201 | 73 | 253 | 2.0 | 13.0 | 0.00 | 0.00 | 0.00 | 38 | 1009.7 |
| 20260505184700 | 73 | 212 | 2.0 | 12.0 | 0.00 | 0.00 | 0.00 | 38 | 1009.9 |
| 20260505184200 | 73 | 198 | 1.0 | 8.0 | 0.00 | 0.00 | 0.00 | 39 | 1009.8 |
| 20260505183921 | 73 | 192 | 1.0 | 8.0 | 0.00 | 0.00 | 0.00 | 39 | 1009.9 |
| 20260505183200 | 73 | 223 | 0.0 | 5.0 | 0.00 | 0.00 | 0.00 | 38 | 1009.8 |
| 20260505182701 | 73 | 225 | 1.0 | 12.0 | 0.00 | 0.00 | 0.00 | 38 | 1010.0 |
| 20260505182201 | 73 | 198 | 1.0 | 12.0 | 0.00 | 0.00 | 0.00 | 39 | 1010.1 |
| 20260505181922 | 73 | 288 | 0.0 | 7.0 | 0.00 | 0.00 | 0.00 | 38 | 1010.0 |
| 20260505181202 | 73 | 242 | 0.0 | 7.0 | 0.00 | 0.00 | 0.00 | 38 | 1010.1 |
| 20260505180703 | 73 | 196 | 0.0 | 6.0 | 0.00 | 0.00 | 0.00 | 39 | 1010.1 |
| 20260505180201 | 73 | 227 | 0.0 | 5.0 | 0.00 | 0.00 | 0.00 | 39 | 1010.1 |
| 20260505175701 | 72 | 214 | 1.0 | 12.0 | 0.00 | 0.00 | 0.00 | 39 | 1010.1 |
| 20260505175201 | 72 | 180 | 1.0 | 12.0 | 0.00 | 0.00 | 0.00 | 39 | 1010.1 |
| 20260505174702 | 72 | 232 | 1.0 | 6.0 | 0.00 | 0.00 | 0.00 | 38 | 1010.1 |
| 20260505174201 | 72 | 207 | 0.0 | 5.0 | 0.00 | 0.00 | 0.00 | 41 | 1010.0 |
| 20260505174146 | 72 | 165 | 0.0 | 4.0 | 0.00 | 0.00 | 0.00 | 41 | 1010.1 |
| 20260505173418 | 72 | 203 | 0.0 | 5.0 | 0.00 | 0.00 | 0.00 | 41 | 1010.0 |
| 20260505172702 | 72 | 172 | 1.0 | 12.0 | 0.00 | 0.00 | 0.00 | 40 | 1009.9 |
| 20260505172201 | 72 | 196 | 0.0 | 12.0 | 0.00 | 0.00 | 0.00 | 40 | 1009.9 |
| 20260505171655 | 71 | 179 | 0.0 | 3.0 | 0.00 | 0.00 | 0.00 | 41 | 1010.0 |
| 20260505171150 | 71 | 217 | 0.0 | 3.0 | 0.00 | 0.00 | 0.00 | 41 | 1010.0 |
| 20260505170644 | 70 | 188 | 0.0 | 7.0 | 0.00 | 0.00 | 0.00 | 43 | 1010.1 |
| 20260505170137 | 69 | 190 | 0.0 | 7.0 | 0.00 | 0.00 | 0.00 | 42 | 1010.2 |
| 20260505165632 | 69 | 225 | 0.0 | 5.0 | 0.00 | 0.00 | 0.00 | 44 | 1010.0 |
| 20260505165129 | 68 | 217 | 0.0 | 6.0 | 0.00 | 0.00 | 0.00 | 43 | 1010.1 |
| 20260505164629 | 68 | 211 | 0.0 | 7.0 | 0.00 | 0.00 | 0.00 | 43 | 1010.1 |
| 20260505164130 | 68 | 173 | 0.0 | 7.0 | 0.00 | 0.00 | 0.00 | 44 | 1010.2 |
| 20260505163629 | 68 | 203 | 0.0 | 7.0 | 0.00 | 0.00 | 0.00 | 41 | 1010.2 |
| 20260505163129 | 68 | 229 | 0.0 | 7.0 | 0.00 | 0.00 | 0.00 | 41 | 1010.2 |
| 20260505162901 | 69 | 225 | 0.0 | 7.0 | 0.00 | 0.00 | 0.00 | 43 | 1010.1 |
| 20260505162356 | 69 | 217 | 0.0 | 11.0 | 0.00 | 0.00 | 0.00 | 43 | 1010.1 |
| 20260505161628 | 69 | 229 | 1.0 | 11.0 | 0.00 | 0.00 | 0.00 | 45 | 1010.1 |
| 20260505161129 | 68 | 238 | 0.0 | 9.0 | 0.00 | 0.00 | 0.00 | 48 | 1010.0 |
| 20260505160629 | 68 | 197 | 0.0 | 6.0 | 0.00 | 0.00 | 0.00 | 48 | 1010.1 |
| 20260505160130 | 68 | 210 | 0.0 | 4.0 | 0.00 | 0.00 | 0.00 | 48 | 1010.1 |
| 20260505152625 | 67 | 221 | 0.0 | 5.0 | 0.00 | 0.00 | 0.00 | 55 | 1010.2 |
| 20260505152119 | 67 | 225 | 0.0 | 5.0 | 0.00 | 0.00 | 0.00 | 54 | 1010.2 |
| 20260505151612 | 67 | 231 | 0.0 | 2.0 | 0.00 | 0.00 | 0.00 | 54 | 1010.1 |
| 20260505151108 | 67 | 193 | 0.0 | 6.0 | 0.00 | 0.00 | 0.00 | 54 | 1010.0 |
| 20260505150608 | 67 | 185 | 0.0 | 6.0 | 0.00 | 0.00 | 0.00 | 54 | 1010.0 |
| 20260505150333 | 67 | 206 | 1.0 | 8.0 | 0.00 | 0.00 | 0.00 | 54 | 1010.0 |
| 20260505124601 | 65 | 211 | 0.0 | 0.0 | 0.00 | 0.00 | 0.00 | 55 | 1009.2 |
| 20260505124101 | 65 | 213 | 0.0 | 0.0 | 0.00 | 0.00 | 0.00 | 55 | 1009.2 |
| 20260505123601 | 65 | 208 | 0.0 | 0.0 | 0.00 | 0.00 | 0.00 | 55 | 1009.2 |
| 20260505123101 | 64 | 201 | 0.0 | 0.0 | 0.00 | 0.00 | 0.00 | 55 | 1009.1 |
| 20260505122601 | 64 | 214 | 0.0 | 0.0 | 0.00 | 0.00 | 0.00 | 55 | 1009.0 |
| 20260505122102 | 64 | 211 | 0.0 | 0.0 | 0.00 | 0.00 | 0.00 | 55 | 1009.0 |
| 20260505121556 | 65 | 217 | 0.0 | 0.0 | 0.00 | 0.00 | 0.00 | 54 | 1009.0 |
| 20260505121050 | 65 | 217 | 0.0 | 0.0 | 0.00 | 0.00 | 0.00 | 53 | 1008.9 |
| 20260505120544 | 65 | 217 | 0.0 | 0.0 | 0.00 | 0.00 | 0.00 | 53 | 1009.0 |
| 20260505120042 | 65 | 217 | 0.0 | 0.0 | 0.00 | 0.00 | 0.00 | 53 | 1008.9 |
| 20260505115542 | 65 | 217 | 0.0 | 0.0 | 0.00 | 0.00 | 0.00 | 52 | 1008.8 |
| 20260505115042 | 65 | 217 | 0.0 | 0.0 | 0.00 | 0.00 | 0.00 | 52 | 1008.7 |
| 20260505114542 | 65 | 217 | 0.0 | 0.0 | 0.00 | 0.00 | 0.00 | 52 | 1008.7 |
| 20260505114042 | 66 | 217 | 0.0 | 0.0 | 0.00 | 0.00 | 0.00 | 51 | 1008.7 |
| 20260505113541 | 66 | 217 | 0.0 | 0.0 | 0.00 | 0.00 | 0.00 | 51 | 1008.7 |
| 20260505113042 | 66 | 217 | 0.0 | 0.0 | 0.00 | 0.00 | 0.00 | 51 | 1008.7 |
| 20260505112542 | 66 | 192 | 0.0 | 0.0 | 0.00 | 0.00 | 0.00 | 50 | 1008.8 |
| 20260505112041 | 66 | 192 | 0.0 | 0.0 | 0.00 | 0.00 | 0.00 | 50 | 1008.7 |
| 20260505111542 | 66 | 192 | 0.0 | 0.0 | 0.00 | 0.00 | 0.00 | 50 | 1008.5 |
| 20260505111040 | 66 | 192 | 0.0 | 0.0 | 0.00 | 0.00 | 0.00 | 50 | 1008.6 |
| 20260505110540 | 66 | 192 | 0.0 | 0.0 | 0.00 | 0.00 | 0.00 | 50 | 1008.6 |
| 20260505102038 | 67 | 190 | 0.0 | 1.0 | 0.00 | 0.00 | 0.00 | 48 | 1009.1 |
| 20260505101530 | 68 | 196 | 0.0 | 1.0 | 0.00 | 0.00 | 0.00 | 47 | 1009.2 |
| 20260505101030 | 68 | 208 | 0.0 | 1.0 | 0.00 | 0.00 | 0.00 | 46 | 1009.3 |
| 20260505100529 | 68 | 209 | 0.0 | 1.0 | 0.00 | 0.00 | 0.00 | 46 | 1009.3 |
| 20260505100029 | 68 | 197 | 0.0 | 6.0 | 0.00 | 0.00 | 0.00 | 45 | 1009.3 |
| 20260505095529 | 68 | 229 | 0.0 | 6.0 | 0.00 | 0.00 | 0.00 | 44 | 1009.4 |
| 20260505095028 | 68 | 188 | 0.0 | 0.0 | 0.00 | 0.00 | 0.00 | 43 | 1009.5 |
| 20260505094529 | 68 | 201 | 0.0 | 0.0 | 0.00 | 0.00 | 0.00 | 42 | 1009.5 |
| 20260505094029 | 69 | 215 | 0.0 | 0.0 | 0.00 | 0.00 | 0.00 | 42 | 1009.7 |
| 20260505093530 | 69 | 218 | 0.0 | 0.0 | 0.00 | 0.00 | 0.00 | 42 | 1009.7 |
| 20260505093029 | 69 | 201 | 0.0 | 0.0 | 0.00 | 0.00 | 0.00 | 42 | 1009.6 |
| 20260505092528 | 69 | 223 | 0.0 | 0.0 | 0.00 | 0.00 | 0.00 | 41 | 1009.7 |
| 20260505092248 | 69 | 242 | 0.0 | 0.0 | 0.00 | 0.00 | 0.00 | 41 | 1009.8 |
| 20260505091750 | 69 | 217 | 0.0 | 0.0 | 0.00 | 0.00 | 0.00 | 40 | 1009.7 |
| 20260505091247 | 69 | 217 | 0.0 | 0.0 | 0.00 | 0.00 | 0.00 | 40 | 1009.7 |
| 20260505090526 | 69 | 217 | 0.0 | 0.0 | 0.00 | 0.00 | 0.00 | 40 | 1009.6 |
| 20260505090025 | 69 | 216 | 0.0 | 0.0 | 0.00 | 0.00 | 0.00 | 39 | 1009.8 |
| 20260505085526 | 69 | 215 | 0.0 | 0.0 | 0.00 | 0.00 | 0.00 | 39 | 1009.7 |
| 20260505085024 | 70 | 238 | 0.0 | 0.0 | 0.00 | 0.00 | 0.00 | 39 | 1009.9 |
| 20260505084521 | 70 | 201 | 0.0 | 1.0 | 0.00 | 0.00 | 0.00 | 39 | 1009.9 |
| 20260505084021 | 70 | 208 | 0.0 | 1.0 | 0.00 | 0.00 | 0.00 | 39 | 1010.1 |
| 20260505083519 | 70 | 213 | 0.0 | 0.0 | 0.00 | 0.00 | 0.00 | 40 | 1010.1 |
| 20260505083020 | 69 | 225 | 0.0 | 0.0 | 0.00 | 0.00 | 0.00 | 39 | 1010.1 |
| 20260505082518 | 70 | 164 | 0.0 | 0.0 | 0.00 | 0.00 | 0.00 | 39 | 1010.1 |
| 20260505082015 | 70 | 164 | 0.0 | 0.0 | 0.00 | 0.00 | 0.00 | 39 | 1010.2 |
| 20260505081738 | 70 | 164 | 0.0 | 0.0 | 0.00 | 0.00 | 0.00 | 39 | 1010.1 |
| 20260505081234 | 70 | 164 | 0.0 | 0.0 | 0.00 | 0.00 | 0.00 | 39 | 1010.1 |
| 20260505080737 | 70 | 178 | 0.0 | 0.0 | 0.00 | 0.00 | 0.00 | 38 | 1009.8 |
| 20260505080008 | 70 | 178 | 0.0 | 0.0 | 0.00 | 0.00 | 0.00 | 38 | 1010.0 |
| 20260505075505 | 70 | 186 | 0.0 | 6.0 | 0.00 | 0.00 | 0.00 | 38 | 1010.2 |
| 20260505075001 | 70 | 170 | 0.0 | 6.0 | 0.00 | 0.00 | 0.00 | 38 | 1010.2 |
| 20260505074502 | 71 | 155 | 1.0 | 8.0 | 0.00 | 0.00 | 0.00 | 37 | 1010.1 |
| 20260505074000 | 71 | 141 | 1.0 | 13.0 | 0.00 | 0.00 | 0.00 | 37 | 1010.2 |
| 20260505073719 | 71 | 123 | 1.0 | 12.0 | 0.00 | 0.00 | 0.00 | 38 | 1010.1 |
| 20260505072948 | 71 | 150 | 0.0 | 8.0 | 0.00 | 0.00 | 0.00 | 40 | 1010.1 |
| 20260505072442 | 71 | 180 | 0.0 | 3.0 | 0.00 | 0.00 | 0.00 | 40 | 1010.1 |
| 20260505071936 | 71 | 176 | 0.0 | 3.0 | 0.00 | 0.00 | 0.00 | 40 | 1010.2 |
| 20260505071432 | 71 | 192 | 0.0 | 0.0 | 0.00 | 0.00 | 0.00 | 40 | 1010.1 |
| 20260505070932 | 71 | 208 | 0.0 | 0.0 | 0.00 | 0.00 | 0.00 | 40 | 1010.0 |
| 20260505070431 | 71 | 209 | 0.0 | 2.0 | 0.00 | 0.00 | 0.00 | 40 | 1010.0 |
| 20260505070155 | 71 | 224 | 0.0 | 2.0 | 0.00 | 0.00 | 0.00 | 40 | 1010.1 |
| 20260505065430 | 71 | 235 | 0.0 | 0.0 | 0.00 | 0.00 | 0.00 | 42 | 1010.1 |
| 20260505065152 | 71 | 225 | 0.0 | 1.0 | 0.00 | 0.00 | 0.00 | 42 | 1010.1 |
| 20260505064430 | 71 | 225 | 0.0 | 1.0 | 0.00 | 0.00 | 0.00 | 42 | 1009.9 |
| 20260505063930 | 71 | 240 | 0.0 | 0.0 | 0.00 | 0.00 | 0.00 | 43 | 1009.9 |
| 20260505063656 | 71 | 224 | 0.0 | 0.0 | 0.00 | 0.00 | 0.00 | 43 | 1009.8 |
| 20260505062929 | 71 | 226 | 0.0 | 0.0 | 0.00 | 0.00 | 0.00 | 43 | 1009.7 |
| 20260505062430 | 71 | 226 | 0.0 | 0.0 | 0.00 | 0.00 | 0.00 | 43 | 1009.7 |
| 20260505061929 | 71 | 233 | 0.0 | 0.0 | 0.00 | 0.00 | 0.00 | 43 | 1009.7 |
| 20260505061654 | 71 | 236 | 0.0 | 0.0 | 0.00 | 0.00 | 0.00 | 43 | 1009.7 |
| 20260505060929 | 72 | 235 | 0.0 | 0.0 | 0.00 | 0.00 | 0.00 | 43 | 1009.7 |
| 20260505060430 | 72 | 240 | 0.0 | 0.0 | 0.00 | 0.00 | 0.00 | 42 | 1009.6 |
| 20260505055929 | 72 | 249 | 0.0 | 1.0 | 0.00 | 0.00 | 0.00 | 42 | 1009.4 |
| 20260505055430 | 72 | 238 | 0.0 | 1.0 | 0.00 | 0.00 | 0.00 | 42 | 1009.5 |
| 20260505054930 | 72 | 223 | 0.0 | 0.0 | 0.00 | 0.00 | 0.00 | 42 | 1009.4 |
| 20260505054424 | 72 | 213 | 0.0 | 0.0 | 0.00 | 0.00 | 0.00 | 42 | 1009.6 |
| 20260505053924 | 72 | 216 | 0.0 | 0.0 | 0.00 | 0.00 | 0.00 | 42 | 1009.5 |
| 20260505053422 | 72 | 209 | 0.0 | 0.0 | 0.00 | 0.00 | 0.00 | 42 | 1009.8 |
| 20260505053149 | 72 | 241 | 0.0 | 0.0 | 0.00 | 0.00 | 0.00 | 41 | 1009.7 |
| 20260505052418 | 72 | 212 | 0.0 | 0.0 | 0.00 | 0.00 | 0.00 | 41 | 1009.8 |
| 20260505051916 | 72 | 229 | 0.0 | 0.0 | 0.00 | 0.00 | 0.00 | 41 | 1010.0 |
| 20260505051413 | 72 | 218 | 0.0 | 0.0 | 0.00 | 0.00 | 0.00 | 41 | 1010.0 |
| 20260505050915 | 72 | 228 | 0.0 | 0.0 | 0.00 | 0.00 | 0.00 | 41 | 1010.1 |
| 20260505050414 | 72 | 208 | 0.0 | 1.0 | 0.00 | 0.00 | 0.00 | 40 | 1010.2 |
| 20260505040908 | 73 | 229 | 0.0 | 0.0 | 0.00 | 0.00 | 0.00 | 41 | 1009.9 |
| 20260505040401 | 73 | 211 | 0.0 | 0.0 | 0.00 | 0.00 | 0.00 | 41 | 1010.0 |
| 20260505040350 | 73 | 194 | 0.0 | 1.0 | 0.00 | 0.00 | 0.00 | 41 | 1009.9 |
| 20260505035401 | 73 | 236 | 0.0 | 1.0 | 0.00 | 0.00 | 0.00 | 41 | 1009.9 |
| 20260505035039 | 73 | 232 | 0.0 | 0.0 | 0.00 | 0.00 | 0.00 | 41 | 1009.8 |
| 20260505035029 | 73 | 223 | 0.0 | 0.0 | 0.00 | 0.00 | 0.00 | 41 | 1009.9 |
| 20260505034809 | 73 | 232 | 0.0 | 0.0 | 0.00 | 0.00 | 0.00 | 41 | 1009.5 |
| 20260505034327 | 73 | 233 | 0.0 | 0.0 | 0.00 | 0.00 | 0.00 | 41 | 1009.6 |
| 20260505032901 | 73 | 219 | 0.0 | 0.0 | 0.00 | 0.00 | 0.00 | 41 | 1009.4 |
| 20260505032401 | 73 | 236 | 0.0 | 0.0 | 0.00 | 0.00 | 0.00 | 41 | 1009.4 |